Safari Endeavour — WDG2742 — position and weather

sailwx.info

Track history (hours):
 
Tides and Currents Weather Stations Pressure Air Temp Water Temp Dewpoint Dewpoint Depression Visibility Wind Speed Wind Dir Waves Ship Positions

Safari Endeavour

Owner: InnerSea Discoveries, LLC, Seattle, WA. More information available from US FCC via Universal Licensing System and Coast Guard Vessel Documentation Center.

Last reported at 2018-Jan-28 07:38 UTC. Time now 2018-Feb-18 20:36 UTC.
Position N 24°20' W 110°23'.
Warning: this ship's position is 21 days out of date.

Length 61 m; draft 3.1 m.

Type: Passenger vessel. MMSI: 338423000.

Date/timePositionNaut miles runAvg speedWind from/ knotsBaromVisibWave heightAir tempDewpointWater temp
2018-Jan-28 07:38N 24°20' W 110°23'1 9.4
2018-Jan-28 07:29N 24°19' W 110°22'5 9.7
2018-Jan-28 06:59N 24°14' W 110°20'3 6.5
2018-Jan-28 06:30N 24°12' W 110°18'2 4.3
2018-Jan-28 05:58N 24°10' W 110°19'0 0.0
2018-Jan-28 05:30N 24°10' W 110°19'0 0.0
2018-Jan-28 05:00N 24°10' W 110°19'0 0.0
2018-Jan-28 04:30N 24°10' W 110°19'0 0.0
2018-Jan-28 04:00N 24°10' W 110°19'0 0.0
2018-Jan-28 03:30N 24°10' W 110°19'0 0.0
2018-Jan-28 02:57N 24°10' W 110°19'0 0.0
2018-Jan-28 02:30N 24°10' W 110°19'0 0.0
2018-Jan-28 02:00N 24°10' W 110°19'0 0.0
2018-Jan-28 01:30N 24°10' W 110°19'0 0.0
2018-Jan-28 01:00N 24°10' W 110°19'0 0.0
2018-Jan-28 00:30N 24°10' W 110°19'0 0.0
2018-Jan-28 00:00N 24°10' W 110°19'0 0.0
2018-Jan-27 23:30N 24°10' W 110°19'0 0.0
2018-Jan-27 23:00N 24°10' W 110°19'0 0.0
2018-Jan-27 22:30N 24°10' W 110°19'0 0.0
2018-Jan-27 22:00N 24°10' W 110°19'0 0.0
2018-Jan-27 21:30N 24°10' W 110°19'0 0.0
2018-Jan-27 21:00N 24°10' W 110°19'0 0.0
2018-Jan-27 20:27N 24°10' W 110°19'0 0.0
2018-Jan-27 20:00N 24°10' W 110°19'0 0.0
2018-Jan-27 19:30N 24°10' W 110°19'0 0.0
2018-Jan-27 19:00N 24°10' W 110°19'0 0.0
2018-Jan-27 18:30N 24°10' W 110°19'0 0.0
2018-Jan-27 18:00N 24°10' W 110°19'0 0.0
2018-Jan-27 17:30N 24°10' W 110°19'0 0.0
2018-Jan-27 17:00N 24°10' W 110°19'0 0.0
2018-Jan-27 16:30N 24°10' W 110°19'0 0.0
2018-Jan-27 16:00N 24°10' W 110°19'0 0.0
2018-Jan-27 15:30N 24°10' W 110°19'0 0.0
2018-Jan-27 15:00N 24°10' W 110°19'0 0.0
2018-Jan-27 14:30N 24°10' W 110°19'0 0.0
2018-Jan-27 14:00N 24°10' W 110°19'0 0.0
2018-Jan-27 13:30N 24°10' W 110°19'0 0.0
2018-Jan-27 13:00N 24°10' W 110°19'0 0.0
2018-Jan-27 12:30N 24°10' W 110°19'0 0.0
2018-Jan-27 12:00N 24°10' W 110°19'0 0.0
2018-Jan-27 11:30N 24°10' W 110°19'0 0.0
2018-Jan-27 11:00N 24°10' W 110°19'0 0.0
2018-Jan-27 10:30N 24°10' W 110°19'0 0.0
2018-Jan-27 09:58N 24°10' W 110°19'0 0.0
2018-Jan-27 09:30N 24°10' W 110°19'0 0.0
2018-Jan-27 09:00N 24°10' W 110°19'0 0.0
2018-Jan-27 08:30N 24°10' W 110°19'0 0.0
2018-Jan-27 07:59N 24°10' W 110°19'0 0.0
2018-Jan-27 07:29N 24°10' W 110°19'0 0.0
2018-Jan-27 06:59N 24°10' W 110°19'0 0.0
2018-Jan-27 06:29N 24°10' W 110°19'0 0.0
2018-Jan-27 05:59N 24°10' W 110°19'3 5.3
2018-Jan-27 05:30N 24°12' W 110°18'3 5.5
2018-Jan-27 05:00N 24°14' W 110°20'4 7.2
2018-Jan-27 04:29N 24°18' W 110°21'  
2018-Jan-22 03:09N 24°24' W 110°21'0 0.0
2018-Jan-22 00:34N 24°24' W 110°21'0 0.0
2018-Jan-22 00:25N 24°24' W 110°21'0 0.0
2018-Jan-21 23:53N 24°24' W 110°21'0 0.1
2018-Jan-21 23:28N 24°24' W 110°21'0 0.1
2018-Jan-21 22:32N 24°24' W 110°21'0 0.2
2018-Jan-21 22:19N 24°24' W 110°21'0 0.0
2018-Jan-21 20:31N 24°24' W 110°21'0 0.0
2018-Jan-21 20:07N 24°24' W 110°21'0 0.1
2018-Jan-21 19:19N 24°24' W 110°21'0 0.1
2018-Jan-21 18:19N 24°24' W 110°21'0 0.0
2018-Jan-21 17:49N 24°24' W 110°21'0 0.0
2018-Jan-21 17:28N 24°24' W 110°21'0 0.1
2018-Jan-21 17:00N 24°24' W 110°21'1 1.9
2018-Jan-21 16:26N 24°23' W 110°21'2 4.4
2018-Jan-21 15:54N 24°22' W 110°19'4 0.5
2018-Jan-21 07:50N 24°20' W 110°22'3 7.5
2018-Jan-21 07:29N 24°17' W 110°21'3 6.7
2018-Jan-21 07:00N 24°14' W 110°20'3 5.5
2018-Jan-21 06:29N 24°12' W 110°18'3 5.0
2018-Jan-21 05:59N 24°10' W 110°19'0 0.0
2018-Jan-21 05:28N 24°10' W 110°19'0 0.0
2018-Jan-21 04:34N 24°10' W 110°19'0 0.1
2018-Jan-21 04:28N 24°10' W 110°19'0 0.0
2018-Jan-21 03:58N 24°10' W 110°19'0 0.0
2018-Jan-21 03:29N 24°10' W 110°19'0 0.0
2018-Jan-21 02:58N 24°10' W 110°19'0 0.0
2018-Jan-21 02:28N 24°10' W 110°19'0 0.0
2018-Jan-21 01:58N 24°10' W 110°19'0 0.0
2018-Jan-21 01:28N 24°10' W 110°19'0 0.0
2018-Jan-21 00:58N 24°10' W 110°19'0 0.0
2018-Jan-21 00:28N 24°10' W 110°19'0 0.0
2018-Jan-20 23:58N 24°10' W 110°19'0 0.0
2018-Jan-20 23:28N 24°10' W 110°19'0 0.0
2018-Jan-20 22:46N 24°10' W 110°19'0 0.0
2018-Jan-20 22:28N 24°10' W 110°19'0 0.0
2018-Jan-20 21:58N 24°10' W 110°19'0 0.0
2018-Jan-20 21:28N 24°10' W 110°19'0 0.0
2018-Jan-20 20:58N 24°10' W 110°19'0 0.0
2018-Jan-20 20:28N 24°10' W 110°19'0 0.0
2018-Jan-20 19:58N 24°10' W 110°19'0 0.0
2018-Jan-20 19:28N 24°10' W 110°19'0 0.0
2018-Jan-20 18:58N 24°10' W 110°19'0 0.0
2018-Jan-20 18:28N 24°10' W 110°19'0 0.0
2018-Jan-20 17:58N 24°10' W 110°19'0 0.0
2018-Jan-20 17:28N 24°10' W 110°19'0 0.0
2018-Jan-20 16:58N 24°10' W 110°19'0 0.0
2018-Jan-20 16:28N 24°10' W 110°19'0 0.0
2018-Jan-20 15:58N 24°10' W 110°19'0 0.0
2018-Jan-20 15:28N 24°10' W 110°19'0 0.0
2018-Jan-20 14:58N 24°10' W 110°19'0 0.0
2018-Jan-20 14:31N 24°10' W 110°19'0 0.0
2018-Jan-20 14:01N 24°10' W 110°19'0 0.0
2018-Jan-20 13:28N 24°10' W 110°19'3 5.0
2018-Jan-20 12:58N 24°12' W 110°18'2 4.2
2018-Jan-20 12:29N 24°14' W 110°20'2 3.8
2018-Jan-20 11:59N 24°15' W 110°21'3 6.8
2018-Jan-20 11:28N 24°19' W 110°22'  
Track history (hours):
 
Tides and Currents Weather Stations Pressure Air Temp Water Temp Dewpoint Dewpoint Depression Visibility Wind Speed Wind Dir Waves Ship Positions

Safari Endeavour

Owner: InnerSea Discoveries, LLC, Seattle, WA. More information available from US FCC via Universal Licensing System and Coast Guard Vessel Documentation Center.

Last reported at 2018-Jan-28 07:38 UTC. Time now 2018-Feb-18 20:36 UTC.
Position N 24°20' W 110°23'.
Warning: this ship's position is 21 days out of date.

Length 61 m; draft 3.1 m.

Type: Passenger vessel. MMSI: 338423000.

Date/timePositionNaut miles runAvg speedWind from/ knotsBaromVisibWave heightAir tempDewpointWater temp
2018-Jan-28 07:38N 24°20' W 110°23'1 9.4
2018-Jan-28 07:29N 24°19' W 110°22'5 9.7
2018-Jan-28 06:59N 24°14' W 110°20'3 6.5
2018-Jan-28 06:30N 24°12' W 110°18'2 4.3
2018-Jan-28 05:58N 24°10' W 110°19'0 0.0
2018-Jan-28 05:30N 24°10' W 110°19'0 0.0
2018-Jan-28 05:00N 24°10' W 110°19'0 0.0
2018-Jan-28 04:30N 24°10' W 110°19'0 0.0
2018-Jan-28 04:00N 24°10' W 110°19'0 0.0
2018-Jan-28 03:30N 24°10' W 110°19'0 0.0
2018-Jan-28 02:57N 24°10' W 110°19'0 0.0
2018-Jan-28 02:30N 24°10' W 110°19'0 0.0
2018-Jan-28 02:00N 24°10' W 110°19'0 0.0
2018-Jan-28 01:30N 24°10' W 110°19'0 0.0
2018-Jan-28 01:00N 24°10' W 110°19'0 0.0
2018-Jan-28 00:30N 24°10' W 110°19'0 0.0
2018-Jan-28 00:00N 24°10' W 110°19'0 0.0
2018-Jan-27 23:30N 24°10' W 110°19'0 0.0
2018-Jan-27 23:00N 24°10' W 110°19'0 0.0
2018-Jan-27 22:30N 24°10' W 110°19'0 0.0
2018-Jan-27 22:00N 24°10' W 110°19'0 0.0
2018-Jan-27 21:30N 24°10' W 110°19'0 0.0
2018-Jan-27 21:00N 24°10' W 110°19'0 0.0
2018-Jan-27 20:27N 24°10' W 110°19'0 0.0
2018-Jan-27 20:00N 24°10' W 110°19'0 0.0
2018-Jan-27 19:30N 24°10' W 110°19'0 0.0
2018-Jan-27 19:00N 24°10' W 110°19'0 0.0
2018-Jan-27 18:30N 24°10' W 110°19'0 0.0
2018-Jan-27 18:00N 24°10' W 110°19'0 0.0
2018-Jan-27 17:30N 24°10' W 110°19'0 0.0
2018-Jan-27 17:00N 24°10' W 110°19'0 0.0
2018-Jan-27 16:30N 24°10' W 110°19'0 0.0
2018-Jan-27 16:00N 24°10' W 110°19'0 0.0
2018-Jan-27 15:30N 24°10' W 110°19'0 0.0
2018-Jan-27 15:00N 24°10' W 110°19'0 0.0
2018-Jan-27 14:30N 24°10' W 110°19'0 0.0
2018-Jan-27 14:00N 24°10' W 110°19'0 0.0
2018-Jan-27 13:30N 24°10' W 110°19'0 0.0
2018-Jan-27 13:00N 24°10' W 110°19'0 0.0
2018-Jan-27 12:30N 24°10' W 110°19'0 0.0
2018-Jan-27 12:00N 24°10' W 110°19'0 0.0
2018-Jan-27 11:30N 24°10' W 110°19'0 0.0
2018-Jan-27 11:00N 24°10' W 110°19'0 0.0
2018-Jan-27 10:30N 24°10' W 110°19'0 0.0
2018-Jan-27 09:58N 24°10' W 110°19'0 0.0
2018-Jan-27 09:30N 24°10' W 110°19'0 0.0
2018-Jan-27 09:00N 24°10' W 110°19'0 0.0
2018-Jan-27 08:30N 24°10' W 110°19'0 0.0
2018-Jan-27 07:59N 24°10' W 110°19'0 0.0
2018-Jan-27 07:29N 24°10' W 110°19'0 0.0
2018-Jan-27 06:59N 24°10' W 110°19'0 0.0
2018-Jan-27 06:29N 24°10' W 110°19'0 0.0
2018-Jan-27 05:59N 24°10' W 110°19'3 5.3
2018-Jan-27 05:30N 24°12' W 110°18'3 5.5
2018-Jan-27 05:00N 24°14' W 110°20'4 7.2
2018-Jan-27 04:29N 24°18' W 110°21'  
2018-Jan-22 03:09N 24°24' W 110°21'0 0.0
2018-Jan-22 00:34N 24°24' W 110°21'0 0.0
2018-Jan-22 00:25N 24°24' W 110°21'0 0.0
2018-Jan-21 23:53N 24°24' W 110°21'0 0.1
2018-Jan-21 23:28N 24°24' W 110°21'0 0.1
2018-Jan-21 22:32N 24°24' W 110°21'0 0.2
2018-Jan-21 22:19N 24°24' W 110°21'0 0.0
2018-Jan-21 20:31N 24°24' W 110°21'0 0.0
2018-Jan-21 20:07N 24°24' W 110°21'0 0.1
2018-Jan-21 19:19N 24°24' W 110°21'0 0.1
2018-Jan-21 18:19N 24°24' W 110°21'0 0.0
2018-Jan-21 17:49N 24°24' W 110°21'0 0.0
2018-Jan-21 17:28N 24°24' W 110°21'0 0.1
2018-Jan-21 17:00N 24°24' W 110°21'1 1.9
2018-Jan-21 16:26N 24°23' W 110°21'2 4.4
2018-Jan-21 15:54N 24°22' W 110°19'4 0.5
2018-Jan-21 07:50N 24°20' W 110°22'3 7.5
2018-Jan-21 07:29N 24°17' W 110°21'3 6.7
2018-Jan-21 07:00N 24°14' W 110°20'3 5.5
2018-Jan-21 06:29N 24°12' W 110°18'3 5.0
2018-Jan-21 05:59N 24°10' W 110°19'0 0.0
2018-Jan-21 05:28N 24°10' W 110°19'0 0.0
2018-Jan-21 04:34N 24°10' W 110°19'0 0.1
2018-Jan-21 04:28N 24°10' W 110°19'0 0.0
2018-Jan-21 03:58N 24°10' W 110°19'0 0.0
2018-Jan-21 03:29N 24°10' W 110°19'0 0.0
2018-Jan-21 02:58N 24°10' W 110°19'0 0.0
2018-Jan-21 02:28N 24°10' W 110°19'0 0.0
2018-Jan-21 01:58N 24°10' W 110°19'0 0.0
2018-Jan-21 01:28N 24°10' W 110°19'0 0.0
2018-Jan-21 00:58N 24°10' W 110°19'0 0.0
2018-Jan-21 00:28N 24°10' W 110°19'0 0.0
2018-Jan-20 23:58N 24°10' W 110°19'0 0.0
2018-Jan-20 23:28N 24°10' W 110°19'0 0.0
2018-Jan-20 22:46N 24°10' W 110°19'0 0.0
2018-Jan-20 22:28N 24°10' W 110°19'0 0.0
2018-Jan-20 21:58N 24°10' W 110°19'0 0.0
2018-Jan-20 21:28N 24°10' W 110°19'0 0.0
2018-Jan-20 20:58N 24°10' W 110°19'0 0.0
2018-Jan-20 20:28N 24°10' W 110°19'0 0.0
2018-Jan-20 19:58N 24°10' W 110°19'0 0.0
2018-Jan-20 19:28N 24°10' W 110°19'0 0.0
2018-Jan-20 18:58N 24°10' W 110°19'0 0.0
2018-Jan-20 18:28N 24°10' W 110°19'0 0.0
2018-Jan-20 17:58N 24°10' W 110°19'0 0.0
2018-Jan-20 17:28N 24°10' W 110°19'0 0.0
2018-Jan-20 16:58N 24°10' W 110°19'0 0.0
2018-Jan-20 16:28N 24°10' W 110°19'0 0.0
2018-Jan-20 15:58N 24°10' W 110°19'0 0.0
2018-Jan-20 15:28N 24°10' W 110°19'0 0.0
2018-Jan-20 14:58N 24°10' W 110°19'0 0.0
2018-Jan-20 14:31N 24°10' W 110°19'0 0.0
2018-Jan-20 14:01N 24°10' W 110°19'0 0.0
2018-Jan-20 13:28N 24°10' W 110°19'3 5.0
2018-Jan-20 12:58N 24°12' W 110°18'2 4.2
2018-Jan-20 12:29N 24°14' W 110°20'2 3.8
2018-Jan-20 11:59N 24°15' W 110°21'3 6.8
2018-Jan-20 11:28N 24°19' W 110°22'  

Dump ship's entire track history